createdAt,value
2022-07-25T00:01:54.527Z,100076.03
2022-07-25T00:04:22.106Z,100086.59
2022-07-25T00:06:48.979Z,100082.13
2022-07-25T00:09:15.744Z,100091.09
2022-07-25T00:11:42.707Z,100091.81
2022-07-25T00:14:09.841Z,100078.22
2022-07-25T00:16:36.938Z,100083.59
2022-07-25T00:19:03.989Z,100094.09
2022-07-25T00:21:30.688Z,100095.38
2022-07-25T00:23:57.311Z,100089.62
2022-07-25T00:26:24.259Z,100084.84
2022-07-25T00:28:51.067Z,100100.56
2022-07-25T00:31:17.815Z,100102.22
2022-07-25T00:33:44.759Z,100106.22
2022-07-25T00:36:11.527Z,100104.00
2022-07-25T00:38:38.176Z,100101.47
2022-07-25T00:41:05.634Z,100093.84
2022-07-25T00:43:33.005Z,100116.59
2022-07-25T00:45:59.936Z,100098.66
2022-07-25T00:48:28.859Z,100101.34
2022-07-25T00:50:56.611Z,100098.06
2022-07-25T00:53:23.970Z,100089.28
2022-07-25T00:55:51.629Z,100092.84
2022-07-25T00:58:18.965Z,100104.13
2022-07-25T01:00:46.018Z,100101.66
2022-07-25T01:03:13.098Z,100083.63
2022-07-25T01:05:40.040Z,100088.19
2022-07-25T01:08:08.832Z,100084.91
2022-07-25T01:10:36.169Z,100094.16
2022-07-25T01:13:02.855Z,100092.75
2022-07-25T01:15:30.248Z,100094.87
2022-07-25T01:17:57.498Z,100088.81
2022-07-25T01:20:26.867Z,100097.50
2022-07-25T01:22:53.914Z,100094.19
2022-07-25T01:25:21.315Z,100084.84
2022-07-25T01:27:54.643Z,100090.38
2022-07-25T01:30:23.778Z,100093.53
2022-07-25T01:32:50.868Z,100089.44
2022-07-25T01:35:17.715Z,100076.44
2022-07-25T01:37:45.508Z,100086.97
2022-07-25T01:40:13.804Z,100085.56
2022-07-25T01:42:41.108Z,100076.53
2022-07-25T01:45:08.795Z,100077.63
2022-07-25T01:47:35.580Z,100083.00
2022-07-25T01:50:02.248Z,100075.97
2022-07-25T01:52:29.203Z,100087.09
2022-07-25T01:54:55.959Z,100075.97
2022-07-25T01:57:23.304Z,100090.16
2022-07-25T01:59:57.087Z,100077.63
2022-07-25T02:02:24.067Z,100087.44
2022-07-25T02:04:51.022Z,100093.66
2022-07-25T02:07:17.717Z,100087.31
2022-07-25T02:09:44.405Z,100090.63
2022-07-25T02:12:11.370Z,100092.38
2022-07-25T02:14:38.321Z,100097.06
2022-07-25T02:17:05.187Z,100086.66
2022-07-25T02:19:32.521Z,100107.84
2022-07-25T02:21:59.307Z,100090.41
2022-07-25T02:24:26.229Z,100090.50
2022-07-25T02:26:53.225Z,100097.22
2022-07-25T02:29:21.910Z,100101.75
2022-07-25T02:31:49.452Z,100104.22
2022-07-25T02:34:16.485Z,100101.09
2022-07-25T02:36:43.346Z,100097.69
2022-07-25T02:39:10.180Z,100110.22
2022-07-25T02:41:37.264Z,100095.25
2022-07-25T02:44:05.452Z,100106.13
2022-07-25T02:46:33.264Z,100109.06
2022-07-25T02:49:00.364Z,100111.75
2022-07-25T02:51:27.042Z,100105.37
2022-07-25T02:54:08.883Z,100112.78
2022-07-25T02:56:35.827Z,100117.00
2022-07-25T02:59:02.542Z,100115.94
2022-07-25T03:01:29.445Z,100125.91
2022-07-25T03:03:56.548Z,100120.75
2022-07-25T03:06:23.294Z,100121.78
2022-07-25T03:08:50.022Z,100120.97
2022-07-25T03:11:16.968Z,100124.50
2022-07-25T03:13:43.640Z,100125.34
2022-07-25T03:16:10.693Z,100111.72
2022-07-25T03:18:38.812Z,100111.97
2022-07-25T03:21:05.705Z,100123.22
2022-07-25T03:23:32.425Z,100121.97
2022-07-25T03:25:59.391Z,100118.19
2022-07-25T03:28:26.209Z,100123.56
2022-07-25T03:30:53.378Z,100125.81
2022-07-25T03:33:20.358Z,100118.19
2022-07-25T03:35:47.289Z,100113.41
2022-07-25T03:38:14.188Z,100115.63
2022-07-25T03:40:41.125Z,100115.63
2022-07-25T03:43:07.860Z,100119.50
2022-07-25T03:45:34.788Z,100114.66
2022-07-25T03:48:02.126Z,100121.72
2022-07-25T03:50:28.829Z,100120.88
2022-07-25T03:52:55.504Z,100110.00
2022-07-25T03:55:22.442Z,100118.41
2022-07-25T03:57:49.178Z,100118.06
2022-07-25T04:00:16.317Z,100126.25
2022-07-25T04:02:43.378Z,100132.13
2022-07-25T04:05:10.993Z,100131.66
2022-07-25T04:07:38.305Z,100142.81
2022-07-25T04:10:06.202Z,100141.16
2022-07-25T04:12:33.313Z,100148.78
2022-07-25T04:15:00.273Z,100145.28
2022-07-25T04:17:27.299Z,100149.81
2022-07-25T04:19:53.985Z,100148.19
2022-07-25T04:22:22.527Z,100129.81
2022-07-25T04:24:49.495Z,100141.87
2022-07-25T04:27:16.762Z,100138.09
2022-07-25T04:29:43.412Z,100129.91
2022-07-25T04:32:10.479Z,100136.00
2022-07-25T04:34:37.172Z,100137.50
2022-07-25T04:37:03.814Z,100136.00
2022-07-25T04:39:30.828Z,100151.22
2022-07-25T04:41:57.504Z,100135.28
2022-07-25T04:44:24.500Z,100141.13
2022-07-25T04:46:51.522Z,100146.06
2022-07-25T04:49:18.251Z,100134.53
2022-07-25T04:51:44.967Z,100131.84
2022-07-25T04:54:12.067Z,100142.00
2022-07-25T04:56:38.766Z,100149.28
2022-07-25T04:59:06.722Z,100148.78
2022-07-25T05:01:34.983Z,100147.12
2022-07-25T05:04:01.897Z,100147.12
2022-07-25T05:06:28.628Z,100145.00
2022-07-25T05:08:55.627Z,100150.75
2022-07-25T05:11:22.559Z,100147.59
2022-07-25T05:13:49.216Z,100147.91
2022-07-25T05:16:16.357Z,100144.41
2022-07-25T05:18:43.158Z,100152.25
2022-07-25T05:21:11.606Z,100152.00
2022-07-25T05:23:38.740Z,100158.34
2022-07-25T05:26:05.735Z,100145.41
2022-07-25T05:28:32.395Z,100155.25
2022-07-25T05:30:59.519Z,100147.78
2022-07-25T05:33:26.647Z,100152.28
2022-07-25T05:35:53.387Z,100152.97
2022-07-25T05:38:20.641Z,100163.84
2022-07-25T05:40:48.146Z,100152.66
2022-07-25T05:43:14.855Z,100149.22
2022-07-25T05:45:41.949Z,100147.19
2022-07-25T05:48:08.589Z,100162.16
2022-07-25T05:50:37.243Z,100146.75
2022-07-25T05:53:04.184Z,100148.47
2022-07-25T05:55:30.969Z,100149.88
2022-07-25T05:57:57.868Z,100151.59
2022-07-25T06:00:25.318Z,100141.84
2022-07-25T06:02:52.465Z,100137.03
2022-07-25T06:05:19.222Z,100145.69
2022-07-25T06:07:45.919Z,100137.34
2022-07-25T06:10:12.907Z,100133.00
2022-07-25T06:12:39.639Z,100134.63
2022-07-25T06:15:07.623Z,100136.84
2022-07-25T06:17:39.818Z,100135.59
2022-07-25T06:20:07.565Z,100113.66
2022-07-25T06:22:35.279Z,100135.66
2022-07-25T06:25:03.165Z,100137.91
2022-07-25T06:27:29.828Z,100132.50
2022-07-25T06:29:56.757Z,100130.09
2022-07-25T06:32:23.900Z,100135.34
2022-07-25T06:34:51.337Z,100131.41
2022-07-25T06:37:17.988Z,100127.78
2022-07-25T06:39:46.064Z,100125.03
2022-07-25T06:42:12.942Z,100121.13
2022-07-25T06:44:39.932Z,100123.75
2022-07-25T06:47:12.520Z,100116.28
2022-07-25T06:49:40.834Z,100120.31
2022-07-25T06:52:08.515Z,100131.50
2022-07-25T06:54:35.446Z,100130.53
2022-07-25T06:57:02.135Z,100123.81
2022-07-25T06:59:29.027Z,100124.94
2022-07-25T07:01:55.776Z,100129.38
2022-07-25T07:04:22.522Z,100127.78
2022-07-25T07:06:49.477Z,100123.09
2022-07-25T07:09:16.144Z,100129.91
2022-07-25T07:11:42.830Z,100116.88
2022-07-25T07:14:10.069Z,100114.69
2022-07-25T07:16:36.974Z,100111.97
2022-07-25T07:19:04.198Z,100122.41
2022-07-25T07:21:31.418Z,100123.53
2022-07-25T07:23:58.106Z,100126.53
2022-07-25T07:26:24.847Z,100104.56
2022-07-25T07:28:54.465Z,100122.25
2022-07-25T07:31:21.375Z,100122.63
2022-07-25T07:33:48.141Z,100107.66
2022-07-25T07:36:15.158Z,100123.16
2022-07-25T07:38:42.002Z,100117.50
2022-07-25T07:41:08.631Z,100119.13
2022-07-25T07:43:35.901Z,100123.75
2022-07-25T07:46:02.907Z,100118.50
2022-07-25T07:48:33.618Z,100118.22
2022-07-25T07:51:01.995Z,100117.38
2022-07-25T07:53:48.082Z,100114.09
2022-07-25T07:56:16.453Z,100120.62
2022-07-25T07:58:43.271Z,100113.88
2022-07-25T08:01:09.969Z,100119.94
2022-07-25T08:03:37.404Z,100122.97
2022-07-25T08:06:05.314Z,100100.75
2022-07-25T08:08:32.043Z,100120.88
2022-07-25T08:10:59.765Z,100116.56
2022-07-25T08:13:31.789Z,100122.37
2022-07-25T08:16:01.873Z,100111.78
2022-07-25T08:18:35.058Z,100114.81
2022-07-25T08:21:04.174Z,100127.38
2022-07-25T08:23:32.034Z,100123.66
2022-07-25T08:25:59.435Z,100117.94
2022-07-25T08:28:26.439Z,100109.78
2022-07-25T08:30:53.602Z,100122.50
2022-07-25T08:33:20.458Z,100124.16
2022-07-25T08:35:53.529Z,100130.09
2022-07-25T08:38:21.875Z,100129.50
2022-07-25T08:40:49.298Z,100139.03
2022-07-25T08:43:17.595Z,100139.28
2022-07-25T08:45:49.476Z,100129.25
2022-07-25T08:48:22.270Z,100127.12
2022-07-25T08:50:50.183Z,100133.69
2022-07-25T08:53:35.581Z,100129.06
2022-07-25T08:56:12.525Z,100130.44
2022-07-25T08:58:43.998Z,100123.66
2022-07-25T09:01:12.595Z,100117.16
2022-07-25T09:03:40.347Z,100118.78
2022-07-25T09:06:20.907Z,100123.94
2022-07-25T09:08:52.446Z,100107.41
2022-07-25T09:11:31.284Z,100123.16
2022-07-25T09:14:11.191Z,100120.44
2022-07-25T09:16:44.857Z,100126.97
2022-07-25T09:19:11.845Z,100123.16
2022-07-25T09:21:39.961Z,100117.97
2022-07-25T09:24:18.520Z,100110.91
2022-07-25T09:26:48.323Z,100110.59
2022-07-25T09:29:19.119Z,100119.59
2022-07-25T09:31:46.194Z,100108.72
2022-07-25T09:34:12.971Z,100109.56
2022-07-25T09:36:52.388Z,100096.50
2022-07-25T09:39:19.130Z,100107.41
2022-07-25T09:41:46.066Z,100109.03
2022-07-25T09:44:22.959Z,100096.03
2022-07-25T09:46:50.552Z,100112.59
2022-07-25T09:49:17.476Z,100109.88
2022-07-25T09:51:44.647Z,100112.84
2022-07-25T09:54:11.843Z,100114.22
2022-07-25T09:56:38.604Z,100105.81
2022-07-25T09:59:06.251Z,100116.91
2022-07-25T10:01:38.082Z,100097.59
2022-07-25T10:04:37.601Z,100117.19
2022-07-25T10:07:09.859Z,100118.28
2022-07-25T10:09:48.232Z,100111.75
2022-07-25T10:12:20.022Z,100121.56
2022-07-25T10:15:10.614Z,100117.75
2022-07-25T10:17:39.273Z,100110.94
2022-07-25T10:20:10.383Z,100121.81
2022-07-25T10:22:57.374Z,100107.12
2022-07-25T10:25:25.174Z,100103.06
2022-07-25T10:27:59.882Z,100095.44
2022-07-25T10:30:40.752Z,100098.97
2022-07-25T10:33:15.994Z,100111.75
2022-07-25T10:35:44.098Z,100094.63
2022-07-25T10:38:11.266Z,100107.97
2022-07-25T10:40:39.734Z,100099.28
2022-07-25T10:43:13.875Z,100093.84
2022-07-25T10:45:43.114Z,100099.81
2022-07-25T10:48:21.775Z,100095.47
2022-07-25T10:51:07.921Z,100111.50
2022-07-25T10:53:39.482Z,100098.72
2022-07-25T10:56:27.328Z,100101.44
2022-07-25T10:58:57.153Z,100103.34
2022-07-25T11:01:36.629Z,100105.25
2022-07-25T11:04:15.728Z,100095.47
2022-07-25T11:06:43.274Z,100103.62
2022-07-25T11:09:17.971Z,100112.88
2022-07-25T11:11:50.732Z,100096.00
2022-07-25T11:14:23.611Z,100095.72
2022-07-25T11:16:53.242Z,100099.81
2022-07-25T11:19:38.239Z,100093.28
2022-07-25T11:22:05.046Z,100086.22
2022-07-25T11:24:40.460Z,100085.69
2022-07-25T11:27:12.564Z,100086.50
2022-07-25T11:29:40.738Z,100091.13
2022-07-25T11:32:10.814Z,100090.00
2022-07-25T11:34:41.415Z,100092.47
2022-07-25T11:37:11.656Z,100084.59
2022-07-25T11:39:41.180Z,100082.16
2022-07-25T11:42:19.744Z,100077.25
2022-07-25T11:44:52.806Z,100079.97
2022-07-25T11:47:30.005Z,100075.09
2022-07-25T11:50:01.706Z,100062.56
2022-07-25T11:52:33.980Z,100063.09
2022-07-25T11:55:03.902Z,100062.22
2022-07-25T11:57:33.837Z,100069.88
2022-07-25T12:00:02.842Z,100050.84
2022-07-25T12:02:39.125Z,100059.81
2022-07-25T12:05:11.344Z,100065.25
2022-07-25T12:07:46.407Z,100052.47
2022-07-25T12:10:18.939Z,100051.63
2022-07-25T12:12:51.882Z,100057.31
2022-07-25T12:15:28.205Z,100068.47
2022-07-25T12:17:56.949Z,100054.28
2022-07-25T12:20:27.867Z,100059.69
2022-07-25T12:22:58.166Z,100057.50
2022-07-25T12:25:30.492Z,100064.22
2022-07-25T12:27:58.957Z,100041.91
2022-07-25T12:30:28.694Z,100066.34
2022-07-25T12:32:56.824Z,100065.81
2022-07-25T12:35:24.464Z,100060.59
2022-07-25T12:37:52.530Z,100061.41
2022-07-25T12:40:19.588Z,100054.03
2022-07-25T12:42:46.786Z,100049.09
2022-07-25T12:45:15.553Z,100052.06
2022-07-25T12:47:44.099Z,100049.88
2022-07-25T12:50:11.210Z,100049.91
2022-07-25T12:52:38.438Z,100040.47
2022-07-25T12:55:07.929Z,100034.22
2022-07-25T12:57:36.552Z,100033.47
2022-07-25T13:00:10.798Z,100035.97
2022-07-25T13:02:38.029Z,100038.44
2022-07-25T13:05:05.909Z,100032.72
2022-07-25T13:07:33.272Z,100039.75
2022-07-25T13:10:00.750Z,100027.75
2022-07-25T13:12:27.837Z,100030.37
2022-07-25T13:14:54.745Z,100020.25
2022-07-25T13:17:27.001Z,100020.16
2022-07-25T13:19:55.338Z,100026.38
2022-07-25T13:22:22.478Z,100021.13
2022-07-25T13:24:49.250Z,100025.47
2022-07-25T13:27:19.709Z,100017.19
2022-07-25T13:29:47.119Z,100017.41
2022-07-25T13:32:14.147Z,100019.59
2022-07-25T13:34:41.244Z,100004.97
2022-07-25T13:37:08.170Z,100002.28
2022-07-25T13:39:35.822Z,100011.28
2022-07-25T13:42:03.154Z,100021.62
2022-07-25T13:44:29.973Z,100013.78
2022-07-25T13:46:58.607Z,100009.25
2022-07-25T13:49:25.936Z,99998.19
2022-07-25T13:51:52.799Z,100000.37
2022-07-25T13:54:19.507Z,100013.47
2022-07-25T13:56:47.493Z,100017.03
2022-07-25T13:59:20.455Z,100006.44
2022-07-25T14:01:48.565Z,100005.41
2022-07-25T14:04:16.086Z,100002.13
2022-07-25T14:06:43.148Z,99999.22
2022-07-25T14:09:10.260Z,100004.38
2022-07-25T14:11:37.618Z,100000.88
2022-07-25T14:14:04.335Z,99989.19
2022-07-25T14:16:31.204Z,99995.47
2022-07-25T14:18:58.225Z,100000.91
2022-07-25T14:21:25.463Z,99986.56
2022-07-25T14:23:52.558Z,100003.97
2022-07-25T14:26:19.692Z,99982.78
2022-07-25T14:28:46.430Z,99980.09
2022-07-25T14:31:13.374Z,99980.91
2022-07-25T14:33:40.628Z,99967.34
2022-07-25T14:36:09.897Z,99975.75
2022-07-25T14:38:36.914Z,99964.91
2022-07-25T14:41:06.663Z,99976.25
2022-07-25T14:43:37.553Z,99977.34
2022-07-25T14:46:05.392Z,99965.91
2022-07-25T14:48:32.253Z,99977.03
2022-07-25T14:50:59.089Z,99976.19
2022-07-25T14:53:26.002Z,99972.38
2022-07-25T14:55:52.710Z,99981.59
2022-07-25T14:58:19.469Z,99986.50
2022-07-25T15:00:47.531Z,99984.03
2022-07-25T15:03:15.442Z,99972.84
2022-07-25T15:05:42.131Z,99973.13
2022-07-25T15:08:09.392Z,99998.97
2022-07-25T15:10:36.114Z,99987.03
2022-07-25T15:13:28.635Z,99980.50
2022-07-25T15:15:49.743Z,99981.06
2022-07-25T15:18:16.449Z,99994.34
2022-07-25T15:20:43.196Z,99988.66
2022-07-25T15:23:10.285Z,99990.31
2022-07-25T15:28:24.476Z,100003.97
2022-07-25T15:30:51.749Z,100007.81
2022-07-25T15:33:19.210Z,99998.06
2022-07-25T15:35:47.257Z,100009.25
2022-07-25T15:38:15.727Z,100005.19
2022-07-25T15:40:44.216Z,100003.31
2022-07-25T15:43:11.880Z,100002.50
2022-07-25T15:45:43.974Z,99997.06
2022-07-25T15:48:12.754Z,99995.41
2022-07-25T15:50:43.168Z,100000.31
2022-07-25T15:53:10.552Z,100003.84
2022-07-25T15:55:39.129Z,99991.88
2022-07-25T15:58:06.541Z,99998.12
2022-07-25T16:00:33.919Z,99989.97
2022-07-25T16:03:01.081Z,99998.12
2022-07-25T16:05:28.053Z,100003.56
2022-07-25T16:07:54.758Z,100001.12
2022-07-25T16:10:21.852Z,100001.66
2022-07-25T16:12:49.059Z,100000.59
2022-07-25T16:15:16.245Z,100002.19
2022-07-25T16:17:43.426Z,100004.09
2022-07-25T16:20:11.211Z,100007.63
2022-07-25T16:22:39.368Z,100012.25
2022-07-25T16:25:06.772Z,100014.72
2022-07-25T16:27:33.713Z,100003.56
2022-07-25T16:30:01.057Z,100011.72
2022-07-25T16:32:28.085Z,99996.53
2022-07-25T16:34:54.826Z,100006.84
2022-07-25T16:37:21.652Z,100013.13
2022-07-25T16:39:48.719Z,100007.94
2022-07-25T16:42:15.524Z,100007.38
2022-07-25T16:44:42.788Z,100003.84
2022-07-25T16:47:10.053Z,100004.13
2022-07-25T16:49:36.988Z,100008.75
2022-07-25T16:52:03.718Z,100011.75
2022-07-25T16:54:30.664Z,100014.47
2022-07-25T16:56:59.810Z,100012.81
2022-07-25T16:59:26.819Z,100011.19
2022-07-25T17:01:54.024Z,100015.53
2022-07-25T17:04:20.999Z,100031.03
2022-07-25T17:06:47.912Z,100031.84
2022-07-25T17:09:15.079Z,100011.19
2022-07-25T17:11:41.977Z,100022.06
2022-07-25T17:14:08.621Z,100004.16
2022-07-25T17:16:35.647Z,100019.87
2022-07-25T17:19:03.220Z,100020.44
2022-07-25T17:21:30.241Z,100022.63
2022-07-25T17:23:57.317Z,100015.81
2022-07-25T17:26:24.162Z,100015.00
2022-07-25T17:28:50.872Z,100023.69
2022-07-25T17:31:18.158Z,100023.16
2022-07-25T17:33:45.093Z,100029.97
2022-07-25T17:36:11.922Z,100025.88
2022-07-25T17:38:38.991Z,100011.22
2022-07-25T17:41:06.238Z,100018.28
2022-07-25T17:43:32.925Z,100028.06
2022-07-25T17:45:59.996Z,100030.78
2022-07-25T17:48:27.085Z,100038.91
2022-07-25T17:50:53.880Z,100043.53
2022-07-25T17:53:20.835Z,100032.66
2022-07-25T17:55:47.638Z,100043.25
2022-07-25T17:58:14.724Z,100043.00
2022-07-25T18:00:41.727Z,100041.88
2022-07-25T18:03:08.976Z,100040.22
2022-07-25T18:05:35.726Z,100048.38
2022-07-25T18:08:03.174Z,100048.91
2022-07-25T18:10:30.723Z,100044.81
2022-07-25T18:13:00.245Z,100045.34
2022-07-25T18:15:27.099Z,100045.09
2022-07-25T18:17:54.187Z,100049.66
2022-07-25T18:20:21.248Z,100053.50
2022-07-25T18:22:48.075Z,100051.28
2022-07-25T18:25:15.286Z,100062.41
2022-07-25T18:27:44.526Z,100056.72
2022-07-25T18:30:11.931Z,100063.78
2022-07-25T18:32:39.516Z,100064.84
2022-07-25T18:35:07.858Z,100070.53
2022-07-25T18:37:36.982Z,100069.16
2022-07-25T18:40:05.853Z,100065.91
2022-07-25T18:42:32.885Z,100067.81
2022-07-25T18:45:00.710Z,100068.09
2022-07-25T18:47:30.967Z,100081.09
2022-07-25T18:49:59.712Z,100063.72
2022-07-25T18:52:27.409Z,100064.22
2022-07-25T18:54:54.563Z,100070.75
2022-07-25T18:57:21.328Z,100065.28
2022-07-25T18:59:48.233Z,100066.41
2022-07-25T19:02:15.404Z,100065.00
2022-07-25T19:04:42.131Z,100066.06
2022-07-25T19:07:09.228Z,100054.91
2022-07-25T19:09:36.368Z,100063.31
2022-07-25T19:12:03.297Z,100072.00
2022-07-25T19:14:30.755Z,100073.34
2022-07-25T19:16:59.026Z,100069.53
2022-07-25T19:19:26.098Z,100064.59
2022-07-25T19:21:53.327Z,100060.00
2022-07-25T19:24:20.768Z,100060.28
2022-07-25T19:26:48.767Z,100063.56
2022-07-25T19:29:16.713Z,100072.25
2022-07-25T19:31:44.389Z,100054.03
2022-07-25T19:34:11.455Z,100061.37
2022-07-25T19:36:38.697Z,100069.25
2022-07-25T19:39:06.308Z,100063.56
2022-07-25T19:41:33.638Z,100070.63
2022-07-25T19:44:00.555Z,100071.72
2022-07-25T19:46:31.364Z,100066.81
2022-07-25T19:48:58.361Z,100041.50
2022-07-25T19:51:25.448Z,100061.66
2022-07-25T19:53:52.767Z,100074.97
2022-07-25T19:56:20.156Z,100077.94
2022-07-25T19:58:47.009Z,100077.13
2022-07-25T20:01:14.491Z,100074.41
2022-07-25T20:03:41.875Z,100072.78
2022-07-25T20:06:09.149Z,100083.38
2022-07-25T20:08:39.373Z,100072.78
2022-07-25T20:11:07.617Z,100073.31
2022-07-25T20:13:35.149Z,100062.16
2022-07-25T20:16:03.862Z,100066.44
2022-07-25T20:18:31.071Z,100067.59
2022-07-25T20:20:58.390Z,100068.88
2022-07-25T20:23:25.748Z,100075.38
2022-07-25T20:25:52.785Z,100077.53
2022-07-25T20:28:19.809Z,100076.97
2022-07-25T20:30:46.606Z,100079.12
2022-07-25T20:33:13.779Z,100081.31
2022-07-25T20:35:40.641Z,100078.84
2022-07-25T20:38:09.778Z,100086.16
2022-07-25T20:40:46.404Z,100088.31
2022-07-25T20:43:16.833Z,100088.59
2022-07-25T20:45:44.040Z,100088.28
2022-07-25T20:48:10.848Z,100081.75
2022-07-25T20:50:37.917Z,100070.84
2022-07-25T20:53:06.445Z,100086.59
2022-07-25T20:55:34.187Z,100081.41
2022-07-25T20:58:01.712Z,100076.25
2022-07-25T21:00:30.555Z,100090.09
2022-07-25T21:02:58.426Z,100072.69
2022-07-25T21:05:26.141Z,100080.56
2022-07-25T21:07:53.737Z,100083.31
2022-07-25T21:10:20.982Z,100089.25
2022-07-25T21:12:48.040Z,100082.75
2022-07-25T21:15:15.387Z,100081.13
2022-07-25T21:17:42.229Z,100071.59
2022-07-25T21:20:11.739Z,100081.66
2022-07-25T21:22:39.545Z,100079.75
2022-07-25T21:25:07.259Z,100076.47
2022-07-25T21:27:34.427Z,100082.16
2022-07-25T21:30:01.757Z,100062.00
2022-07-25T21:32:28.455Z,100063.13
2022-07-25T21:34:55.235Z,100060.09
2022-07-25T21:37:22.225Z,100070.16
2022-07-25T21:39:48.863Z,100058.16
2022-07-25T21:42:15.677Z,100057.59
2022-07-25T21:44:44.030Z,100051.38
2022-07-25T21:47:12.432Z,100062.22
2022-07-25T21:49:57.734Z,100059.19
2022-07-25T21:52:30.155Z,100059.69
2022-07-25T21:55:02.665Z,100056.97
2022-07-25T21:57:29.740Z,100064.56
2022-07-25T21:59:56.458Z,100055.56
2022-07-25T22:02:23.727Z,100060.19
2022-07-25T22:04:50.930Z,100055.53
2022-07-25T22:07:18.072Z,100067.13
2022-07-25T22:09:45.041Z,100054.28
2022-07-25T22:12:12.452Z,100060.75
2022-07-25T22:14:39.204Z,100049.84
2022-07-25T22:17:05.969Z,100050.03
2022-07-25T22:19:33.390Z,100064.09
2022-07-25T22:22:00.185Z,100067.59
2022-07-25T22:24:27.012Z,100063.72
2022-07-25T22:26:54.045Z,100056.56
2022-07-25T22:29:21.098Z,100064.69
2022-07-25T22:31:47.847Z,100076.56
2022-07-25T22:34:14.893Z,100062.75
2022-07-25T22:36:41.561Z,100062.41
2022-07-25T22:39:08.524Z,100057.75
2022-07-25T22:41:35.991Z,100055.00
2022-07-25T22:44:02.995Z,100052.47
2022-07-25T22:46:30.658Z,100052.72
2022-07-25T22:48:58.870Z,100053.72
2022-07-25T22:51:26.580Z,100047.09
2022-07-25T22:53:53.934Z,100055.19
2022-07-25T22:56:21.801Z,100046.94
2022-07-25T22:58:48.778Z,100046.94
2022-07-25T23:01:17.528Z,100042.53
2022-07-25T23:03:45.342Z,100057.72
2022-07-25T23:06:12.666Z,100054.09
2022-07-25T23:08:39.439Z,100054.59
2022-07-25T23:11:06.515Z,100050.69
2022-07-25T23:13:34.321Z,100048.00
2022-07-25T23:16:03.188Z,100049.78
2022-07-25T23:18:31.214Z,100053.00
2022-07-25T23:20:58.191Z,100044.16
2022-07-25T23:23:25.074Z,100048.28
2022-07-25T23:25:52.476Z,100057.94
2022-07-25T23:28:19.137Z,100041.91
2022-07-25T23:30:45.791Z,100046.94
2022-07-25T23:33:12.855Z,100042.28
2022-07-25T23:35:39.521Z,100038.44
2022-07-25T23:38:06.178Z,100046.47
2022-07-25T23:40:33.224Z,100042.38
2022-07-25T23:43:00.103Z,100031.25
2022-07-25T23:45:28.089Z,100037.94
2022-07-25T23:47:56.549Z,100035.19
2022-07-25T23:50:23.882Z,100036.44
2022-07-25T23:52:51.090Z,100036.69
2022-07-25T23:55:18.158Z,100032.03
2022-07-25T23:57:44.839Z,100030.06
